createdAt,value
2022-10-29T00:01:44.669Z,83.70
2022-10-29T00:04:12.755Z,83.57
2022-10-29T00:06:40.935Z,83.68
2022-10-29T00:09:08.842Z,83.62
2022-10-29T00:11:38.050Z,83.88
2022-10-29T00:14:06.112Z,83.96
2022-10-29T00:16:38.090Z,83.96
2022-10-29T00:19:07.000Z,83.41
2022-10-29T00:21:35.077Z,83.73
2022-10-29T00:24:02.983Z,83.83
2022-10-29T00:26:31.230Z,83.79
2022-10-29T00:29:00.345Z,83.61
2022-10-29T00:31:28.292Z,83.80
2022-10-29T00:34:14.511Z,83.83
2022-10-29T00:36:42.489Z,83.68
2022-10-29T00:39:14.134Z,83.60
2022-10-29T00:41:42.028Z,83.79
2022-10-29T00:44:35.451Z,83.41
2022-10-29T00:47:12.324Z,83.73
2022-10-29T00:49:42.041Z,83.50
2022-10-29T00:52:11.117Z,83.58
2022-10-29T00:54:43.760Z,83.26
2022-10-29T00:57:15.430Z,83.59
2022-10-29T01:02:21.627Z,83.52
2022-10-29T01:04:50.840Z,83.73
2022-10-29T01:07:18.729Z,83.59
2022-10-29T01:09:46.595Z,83.58
2022-10-29T01:12:33.874Z,83.65
2022-10-29T01:15:14.158Z,83.74
2022-10-29T01:17:51.431Z,83.76
2022-10-29T01:20:47.406Z,83.41
2022-10-29T01:23:39.684Z,83.78
2022-10-29T01:26:35.246Z,83.60
2022-10-29T01:29:20.526Z,83.71
2022-10-29T01:31:54.466Z,83.63
2022-10-29T01:34:30.274Z,83.63
2022-10-29T01:37:02.827Z,83.77
2022-10-29T01:39:38.709Z,83.56
2022-10-29T01:42:14.936Z,83.60
2022-10-29T01:44:48.507Z,83.56
2022-10-29T01:47:20.897Z,83.61
2022-10-29T01:49:53.070Z,83.43
2022-10-29T01:52:24.150Z,83.53
2022-10-29T01:54:52.653Z,83.63
2022-10-29T01:57:32.161Z,83.68
2022-10-29T02:00:02.878Z,83.68
2022-10-29T02:02:48.506Z,83.69
2022-10-29T02:05:24.681Z,83.69
2022-10-29T02:07:56.146Z,83.40
2022-10-29T02:10:33.734Z,83.58
2022-10-29T02:13:01.655Z,83.71
2022-10-29T02:15:35.565Z,83.66
2022-10-29T02:18:07.013Z,83.77
2022-10-29T02:20:36.095Z,83.54
2022-10-29T02:23:04.066Z,83.42
2022-10-29T02:25:32.060Z,83.67
2022-10-29T02:28:00.152Z,83.61
2022-10-29T02:30:27.936Z,83.47
2022-10-29T02:32:55.950Z,83.64
2022-10-29T02:35:25.747Z,83.57
2022-10-29T02:37:53.555Z,83.67
2022-10-29T02:40:21.587Z,83.64
2022-10-29T02:42:49.650Z,83.79
2022-10-29T02:45:17.518Z,83.62
2022-10-29T02:47:47.471Z,83.61
2022-10-29T02:50:15.625Z,83.66
2022-10-29T02:52:45.063Z,83.77
2022-10-29T02:55:12.832Z,83.74
2022-10-29T02:57:40.630Z,83.81
2022-10-29T03:00:10.300Z,83.65
2022-10-29T03:02:38.571Z,83.83
2022-10-29T03:05:14.521Z,83.87
2022-10-29T03:07:42.572Z,83.56
2022-10-29T03:10:12.082Z,83.80
2022-10-29T03:12:39.882Z,83.89
2022-10-29T03:15:08.509Z,83.77
2022-10-29T03:17:36.667Z,84.01
2022-10-29T03:20:05.084Z,83.88
2022-10-29T03:22:32.951Z,83.99
2022-10-29T03:25:01.026Z,83.96
2022-10-29T03:27:30.704Z,83.94
2022-10-29T03:29:58.587Z,83.91
2022-10-29T03:32:26.577Z,84.05
2022-10-29T03:34:59.027Z,84.25
2022-10-29T03:37:28.091Z,84.17
2022-10-29T03:39:56.100Z,84.18
2022-10-29T03:42:23.906Z,84.23
2022-10-29T03:44:53.380Z,84.29
2022-10-29T03:47:21.187Z,83.93
2022-10-29T03:49:49.024Z,84.15
2022-10-29T03:52:16.958Z,83.94
2022-10-29T03:54:44.963Z,84.23
2022-10-29T03:57:12.835Z,84.31
2022-10-29T03:59:41.084Z,84.41
2022-10-29T04:02:10.716Z,84.11
2022-10-29T04:04:38.872Z,84.12
2022-10-29T04:07:07.153Z,84.43
2022-10-29T04:09:35.051Z,84.21
2022-10-29T04:12:04.139Z,84.26
2022-10-29T04:14:32.537Z,84.49
2022-10-29T04:17:00.447Z,84.50
2022-10-29T04:19:29.641Z,84.61
2022-10-29T04:30:21.136Z,84.53
2022-10-29T04:32:49.087Z,84.73
2022-10-29T04:35:18.412Z,84.39
2022-10-29T04:37:46.412Z,84.67
2022-10-29T04:40:14.318Z,84.72
2022-10-29T04:42:43.819Z,84.66
2022-10-29T04:45:11.746Z,84.50
2022-10-29T04:47:39.620Z,84.47
2022-10-29T04:50:08.099Z,84.89
2022-10-29T04:52:37.351Z,84.58
2022-10-29T04:55:05.815Z,84.60
2022-10-29T04:57:33.840Z,84.78
2022-10-29T05:00:01.794Z,84.54
2022-10-29T05:02:30.849Z,84.49
2022-10-29T05:04:58.610Z,85.02
2022-10-29T05:07:28.045Z,84.56
2022-10-29T05:09:57.222Z,85.05
2022-10-29T05:12:25.218Z,84.78
2022-10-29T05:14:53.380Z,84.83
2022-10-29T05:17:22.031Z,84.64
2022-10-29T05:19:50.043Z,85.02
2022-10-29T05:22:18.332Z,85.09
2022-10-29T05:24:46.110Z,85.10
2022-10-29T05:27:15.846Z,84.89
2022-10-29T05:29:43.757Z,85.15
2022-10-29T05:32:11.883Z,84.91
2022-10-29T05:34:44.456Z,84.97
2022-10-29T05:37:12.557Z,84.95
2022-10-29T05:39:40.451Z,84.87
2022-10-29T05:42:08.585Z,84.76
2022-10-29T05:44:37.843Z,84.99
2022-10-29T05:47:07.439Z,85.07
2022-10-29T05:49:36.247Z,84.81
2022-10-29T05:52:04.166Z,84.81
2022-10-29T05:54:32.163Z,85.11
2022-10-29T05:57:00.077Z,84.99
2022-10-29T05:59:32.639Z,85.33
2022-10-29T06:02:03.290Z,85.32
2022-10-29T06:04:31.359Z,84.82
2022-10-29T06:06:59.125Z,85.26
2022-10-29T06:09:27.084Z,84.87
2022-10-29T06:11:55.772Z,85.35
2022-10-29T06:14:23.834Z,84.79
2022-10-29T06:16:51.865Z,85.24
2022-10-29T06:19:20.986Z,85.27
2022-10-29T06:21:48.902Z,85.12
2022-10-29T06:24:16.819Z,84.94
2022-10-29T06:26:44.540Z,85.01
2022-10-29T06:29:12.626Z,85.38
2022-10-29T06:31:40.460Z,84.95
2022-10-29T06:34:08.711Z,85.13
2022-10-29T06:36:37.928Z,84.95
2022-10-29T06:39:05.882Z,85.29
2022-10-29T06:41:33.740Z,85.08
2022-10-29T06:44:01.607Z,84.95
2022-10-29T06:46:29.565Z,85.36
2022-10-29T06:48:57.589Z,85.42
2022-10-29T06:51:25.453Z,85.03
2022-10-29T06:53:55.106Z,85.25
2022-10-29T06:56:23.240Z,85.15
2022-10-29T06:58:51.561Z,85.04
2022-10-29T07:01:19.650Z,85.24
2022-10-29T07:03:48.315Z,85.06
2022-10-29T07:06:16.382Z,85.04
2022-10-29T07:08:44.367Z,85.31
2022-10-29T07:11:13.877Z,84.80
2022-10-29T07:13:41.685Z,85.23
2022-10-29T07:16:09.659Z,85.05
2022-10-29T07:18:37.537Z,84.89
2022-10-29T07:21:06.418Z,85.06
2022-10-29T07:23:34.365Z,85.21
2022-10-29T07:26:02.318Z,84.84
2022-10-29T07:28:31.484Z,84.86
2022-10-29T07:31:01.833Z,84.90
2022-10-29T07:33:30.919Z,84.95
2022-10-29T07:36:00.902Z,84.99
2022-10-29T07:38:28.747Z,84.76
2022-10-29T07:40:57.607Z,84.68
2022-10-29T07:43:25.700Z,85.25
2022-10-29T07:45:55.039Z,84.86
2022-10-29T07:48:23.125Z,84.63
2022-10-29T07:50:51.435Z,84.83
2022-10-29T07:53:19.572Z,84.66
2022-10-29T07:55:53.594Z,84.75
2022-10-29T07:58:21.809Z,84.66
2022-10-29T08:00:49.773Z,84.68
2022-10-29T08:03:19.491Z,84.76
2022-10-29T08:05:56.287Z,84.56
2022-10-29T08:08:24.521Z,84.56
2022-10-29T08:10:52.896Z,84.41
2022-10-29T08:13:20.806Z,84.75
2022-10-29T08:15:52.167Z,84.48
2022-10-29T08:18:26.505Z,84.49
2022-10-29T08:20:55.435Z,84.45
2022-10-29T08:23:23.858Z,84.36
2022-10-29T08:25:51.606Z,84.43
2022-10-29T08:28:20.879Z,84.31
2022-10-29T08:30:51.193Z,84.51
2022-10-29T08:33:20.922Z,84.44
2022-10-29T08:35:48.734Z,84.26
2022-10-29T08:38:16.611Z,84.30
2022-10-29T08:40:56.368Z,84.22
2022-10-29T08:43:48.866Z,84.13
2022-10-29T08:46:22.195Z,83.99
2022-10-29T08:48:55.429Z,83.89
2022-10-29T08:51:27.820Z,83.91
2022-10-29T08:56:50.537Z,83.62
2022-10-29T08:59:21.491Z,83.83
2022-10-29T09:01:49.725Z,83.60
2022-10-29T09:04:28.533Z,83.42
2022-10-29T09:07:14.426Z,83.43
2022-10-29T09:09:48.323Z,83.41
2022-10-29T09:12:39.104Z,83.20
2022-10-29T09:15:31.688Z,83.20
2022-10-29T09:18:13.570Z,83.06
2022-10-29T09:20:53.419Z,83.11
2022-10-29T09:23:29.094Z,82.68
2022-10-29T09:26:02.571Z,82.46
2022-10-29T09:28:40.931Z,82.24
2022-10-29T09:31:17.471Z,82.63
2022-10-29T09:33:47.383Z,82.46
2022-10-29T09:36:20.223Z,82.27
2022-10-29T09:38:56.188Z,81.97
2022-10-29T09:41:27.813Z,81.92
2022-10-29T09:44:02.285Z,81.81
2022-10-29T09:46:40.821Z,81.59
2022-10-29T09:49:21.610Z,81.56
2022-10-29T09:51:54.945Z,81.11
2022-10-29T09:54:26.008Z,81.17
2022-10-29T09:56:56.144Z,80.79
2022-10-29T09:59:31.158Z,80.85
2022-10-29T10:02:00.214Z,80.46
2022-10-29T10:04:30.905Z,80.42
2022-10-29T10:07:11.312Z,80.62
2022-10-29T10:09:53.116Z,80.11
2022-10-29T10:12:23.311Z,79.81
2022-10-29T10:15:03.141Z,79.65
2022-10-29T10:17:56.669Z,79.65
2022-10-29T10:20:31.896Z,79.29
2022-10-29T10:23:01.670Z,79.28
2022-10-29T10:25:34.741Z,78.85
2022-10-29T10:28:06.167Z,78.66
2022-10-29T10:30:34.027Z,78.64
2022-10-29T10:33:13.049Z,78.58
2022-10-29T10:35:40.914Z,78.22
2022-10-29T10:38:13.232Z,78.01
2022-10-29T10:40:43.453Z,77.83
2022-10-29T10:43:21.234Z,77.81
2022-10-29T10:45:55.361Z,77.52
2022-10-29T10:48:28.593Z,77.27
2022-10-29T10:51:29.811Z,77.13
2022-10-29T10:54:00.439Z,76.60
2022-10-29T10:56:28.418Z,76.40
2022-10-29T10:59:08.906Z,76.33
2022-10-29T11:01:42.389Z,76.11
2022-10-29T11:04:18.882Z,75.76
2022-10-29T11:06:51.345Z,75.64
2022-10-29T11:09:27.246Z,75.58
2022-10-29T11:12:01.772Z,75.52
2022-10-29T11:14:34.686Z,75.31
2022-10-29T11:17:04.567Z,74.86
2022-10-29T11:19:39.738Z,74.84
2022-10-29T11:22:19.576Z,74.69
2022-10-29T11:24:56.643Z,74.41
2022-10-29T11:27:35.584Z,74.21
2022-10-29T11:30:06.829Z,73.94
2022-10-29T11:32:49.411Z,73.81
2022-10-29T11:35:24.769Z,73.57
2022-10-29T11:38:00.133Z,73.37
2022-10-29T11:40:38.543Z,73.22
2022-10-29T11:43:12.284Z,72.95
2022-10-29T11:45:48.557Z,72.91
2022-10-29T11:51:05.413Z,72.71
2022-10-29T11:53:54.122Z,72.40
2022-10-29T11:56:41.321Z,72.24
2022-10-29T11:59:16.462Z,72.11
2022-10-29T12:01:54.319Z,72.04
2022-10-29T12:04:28.189Z,71.80
2022-10-29T12:07:23.309Z,71.65
2022-10-29T12:10:15.929Z,71.46
2022-10-29T12:12:52.028Z,71.38
2022-10-29T12:15:26.168Z,71.39
2022-10-29T12:18:03.004Z,71.21
2022-10-29T12:20:38.197Z,70.98
2022-10-29T12:23:25.506Z,70.85
2022-10-29T12:26:06.561Z,70.71
2022-10-29T12:28:46.734Z,70.75
2022-10-29T12:31:25.595Z,70.41
2022-10-29T12:34:00.439Z,70.19
2022-10-29T12:36:40.683Z,70.15
2022-10-29T12:39:18.357Z,70.07
2022-10-29T12:41:49.589Z,69.79
2022-10-29T12:44:28.503Z,69.69
2022-10-29T12:47:03.917Z,69.71
2022-10-29T12:49:45.322Z,69.64
2022-10-29T12:52:20.124Z,69.33
2022-10-29T12:54:51.536Z,69.12
2022-10-29T12:57:30.149Z,69.32
2022-10-29T13:00:38.018Z,68.99
2022-10-29T13:03:09.239Z,69.08
2022-10-29T13:05:40.615Z,68.64
2022-10-29T13:08:35.962Z,68.70
2022-10-29T13:11:18.966Z,68.54
2022-10-29T13:14:00.208Z,68.33
2022-10-29T13:16:31.351Z,68.64
2022-10-29T13:19:35.923Z,68.40
2022-10-29T13:22:34.408Z,68.44
2022-10-29T13:25:51.402Z,68.36
2022-10-29T13:28:53.412Z,68.18
2022-10-29T13:31:50.281Z,68.15
2022-10-29T13:34:52.043Z,68.00
2022-10-29T13:37:51.925Z,67.96
2022-10-29T13:40:56.231Z,68.01
2022-10-29T13:43:25.607Z,67.79
2022-10-29T13:46:05.292Z,67.71
2022-10-29T13:48:37.214Z,67.65
2022-10-29T13:51:08.700Z,67.81
2022-10-29T13:53:43.438Z,67.59
2022-10-29T13:56:18.012Z,67.63
2022-10-29T13:58:49.961Z,67.91
2022-10-29T14:01:20.311Z,67.60
2022-10-29T14:03:59.719Z,67.33
2022-10-29T14:06:32.700Z,67.58
2022-10-29T14:09:13.006Z,67.41
2022-10-29T14:11:45.570Z,67.11
2022-10-29T14:14:26.281Z,66.89
2022-10-29T14:17:16.632Z,66.87
2022-10-29T14:19:47.013Z,66.72
2022-10-29T14:22:30.639Z,66.76
2022-10-29T14:25:00.828Z,67.04
2022-10-29T14:27:28.808Z,66.90
2022-10-29T14:30:15.165Z,66.86
2022-10-29T14:32:45.324Z,66.83
2022-10-29T14:35:16.941Z,66.61
2022-10-29T14:37:46.425Z,66.93
2022-10-29T14:40:22.644Z,66.54
2022-10-29T14:42:55.318Z,66.85
2022-10-29T14:45:28.877Z,66.41
2022-10-29T14:47:58.806Z,66.55
2022-10-29T14:50:28.311Z,66.65
2022-10-29T14:53:00.364Z,66.42
2022-10-29T14:55:34.131Z,66.36
2022-10-29T14:58:05.258Z,66.50
2022-10-29T15:00:37.169Z,66.36
2022-10-29T15:03:07.113Z,66.55
2022-10-29T15:05:36.609Z,66.38
2022-10-29T15:08:15.261Z,66.35
2022-10-29T15:10:50.701Z,66.33
2022-10-29T15:13:25.166Z,66.10
2022-10-29T15:15:56.339Z,66.18
2022-10-29T15:18:25.558Z,66.31
2022-10-29T15:20:55.103Z,66.23
2022-10-29T15:23:31.036Z,66.05
2022-10-29T15:26:06.183Z,66.21
2022-10-29T15:28:40.211Z,66.24
2022-10-29T15:31:08.825Z,66.18
2022-10-29T15:33:38.537Z,66.13
2022-10-29T15:36:09.551Z,66.06
2022-10-29T15:39:13.306Z,66.01
2022-10-29T15:41:49.034Z,66.11
2022-10-29T15:44:38.503Z,66.20
2022-10-29T15:47:23.164Z,66.01
2022-10-29T15:49:51.138Z,65.90
2022-10-29T15:52:21.460Z,66.12
2022-10-29T15:54:49.867Z,66.01
2022-10-29T15:57:19.048Z,66.19
2022-10-29T15:59:46.836Z,66.10
2022-10-29T16:02:17.667Z,66.15
2022-10-29T16:04:46.072Z,66.08
2022-10-29T16:07:14.962Z,65.95
2022-10-29T16:09:47.194Z,66.08
2022-10-29T16:12:15.482Z,65.75
2022-10-29T16:14:45.122Z,65.98
2022-10-29T16:17:17.888Z,65.93
2022-10-29T16:19:45.960Z,65.96
2022-10-29T16:22:15.998Z,65.93
2022-10-29T16:24:43.945Z,65.96
2022-10-29T16:27:16.399Z,65.92
2022-10-29T16:29:47.106Z,66.24
2022-10-29T16:32:16.831Z,66.08
2022-10-29T16:34:44.644Z,66.25
2022-10-29T16:37:15.590Z,65.85
2022-10-29T16:39:43.877Z,66.30
2022-10-29T16:42:31.589Z,66.20
2022-10-29T16:45:01.123Z,66.25
2022-10-29T16:47:28.927Z,66.19
2022-10-29T16:49:57.074Z,65.91
2022-10-29T16:52:28.861Z,66.18
2022-10-29T16:54:57.829Z,66.08
2022-10-29T16:57:26.078Z,65.95
2022-10-29T16:59:54.002Z,66.05
2022-10-29T17:02:23.306Z,66.23
2022-10-29T17:04:51.239Z,66.46
2022-10-29T17:07:19.007Z,65.95
2022-10-29T17:09:46.903Z,66.03
2022-10-29T17:12:15.143Z,66.12
2022-10-29T17:14:43.095Z,66.33
2022-10-29T17:17:11.165Z,65.96
2022-10-29T17:19:40.377Z,66.45
2022-10-29T17:22:10.695Z,66.49
2022-10-29T17:24:38.668Z,66.27
2022-10-29T17:27:06.845Z,66.52
2022-10-29T17:29:36.477Z,66.53
2022-10-29T17:32:05.736Z,66.27
2022-10-29T17:34:34.423Z,66.41
2022-10-29T17:37:04.014Z,66.21
2022-10-29T17:39:32.233Z,66.24
2022-10-29T17:42:00.359Z,66.24
2022-10-29T17:44:28.246Z,66.57
2022-10-29T17:46:56.361Z,66.31
2022-10-29T17:49:25.800Z,66.57
2022-10-29T17:51:53.671Z,66.73
2022-10-29T17:54:22.935Z,66.66
2022-10-29T17:56:51.737Z,66.51
2022-10-29T17:59:19.483Z,66.44
2022-10-29T18:01:47.588Z,66.80
2022-10-29T18:04:15.678Z,66.40
2022-10-29T18:06:43.574Z,66.64
2022-10-29T18:09:11.463Z,66.69
2022-10-29T18:11:40.768Z,66.90
2022-10-29T18:14:08.925Z,66.79
2022-10-29T18:16:36.738Z,66.93
2022-10-29T18:19:04.707Z,66.69
2022-10-29T18:21:32.941Z,66.72
2022-10-29T18:24:01.061Z,66.93
2022-10-29T18:26:31.142Z,66.78
2022-10-29T18:29:02.039Z,66.84
2022-10-29T18:31:32.137Z,66.58
2022-10-29T18:34:00.986Z,67.02
2022-10-29T18:36:29.374Z,67.06
2022-10-29T18:39:00.829Z,66.80
2022-10-29T18:41:29.162Z,67.19
2022-10-29T18:43:57.149Z,67.01
2022-10-29T18:46:26.755Z,66.81
2022-10-29T18:48:54.971Z,67.09
2022-10-29T18:51:25.279Z,66.88
2022-10-29T18:53:57.790Z,66.85
2022-10-29T18:56:26.653Z,66.92
2022-10-29T18:58:55.652Z,66.73
2022-10-29T19:01:26.377Z,66.83
2022-10-29T19:03:57.769Z,66.60
2022-10-29T19:06:27.482Z,66.83
2022-10-29T19:08:55.507Z,67.42
2022-10-29T19:11:25.980Z,66.66
2022-10-29T19:13:54.885Z,66.88
2022-10-29T19:16:23.502Z,66.69
2022-10-29T19:18:57.290Z,66.97
2022-10-29T19:21:26.432Z,66.98
2022-10-29T19:23:56.073Z,67.18
2022-10-29T19:26:25.633Z,66.47
2022-10-29T19:28:53.543Z,66.88
2022-10-29T19:31:23.616Z,66.83
2022-10-29T19:33:53.488Z,66.53
2022-10-29T19:36:23.929Z,66.69
2022-10-29T19:38:51.878Z,67.13
2022-10-29T19:41:20.533Z,67.26
2022-10-29T19:43:48.456Z,66.99
2022-10-29T19:46:18.211Z,67.07
2022-10-29T19:48:50.362Z,66.70
2022-10-29T19:51:18.908Z,66.92
2022-10-29T19:53:48.343Z,67.05
2022-10-29T19:56:17.221Z,67.21
2022-10-29T19:58:45.850Z,67.12
2022-10-29T20:01:17.046Z,67.22
2022-10-29T20:03:46.596Z,67.20
2022-10-29T20:06:15.902Z,66.79
2022-10-29T20:08:43.785Z,66.70
2022-10-29T20:11:13.040Z,67.20
2022-10-29T20:13:40.940Z,67.28
2022-10-29T20:16:14.246Z,67.41
2022-10-29T20:18:42.084Z,67.09
2022-10-29T20:21:10.117Z,66.90
2022-10-29T20:23:38.167Z,66.97
2022-10-29T20:26:06.382Z,67.27
2022-10-29T20:28:36.028Z,67.12
2022-10-29T20:31:30.736Z,67.00
2022-10-29T20:34:01.049Z,67.10
2022-10-29T20:36:31.103Z,67.33
2022-10-29T20:38:59.476Z,67.20
2022-10-29T20:41:27.778Z,67.10
2022-10-29T20:43:58.488Z,67.34
2022-10-29T20:46:26.819Z,67.03
2022-10-29T20:48:54.650Z,67.01
2022-10-29T20:51:23.295Z,67.13
2022-10-29T20:53:51.651Z,67.39
2022-10-29T20:56:19.628Z,67.20
2022-10-29T20:58:48.565Z,67.39
2022-10-29T21:01:20.574Z,67.33
2022-10-29T21:03:50.454Z,66.88
2022-10-29T21:06:19.214Z,67.57
2022-10-29T21:08:47.917Z,66.77
2022-10-29T21:11:17.802Z,67.44
2022-10-29T21:13:46.112Z,67.64
2022-10-29T21:16:18.449Z,67.10
2022-10-29T21:18:48.393Z,66.78
2022-10-29T21:21:19.374Z,66.93
2022-10-29T21:23:47.456Z,67.54
2022-10-29T21:26:17.037Z,67.32
2022-10-29T21:28:45.108Z,66.56
2022-10-29T21:31:14.056Z,66.90
2022-10-29T21:33:43.481Z,67.40
2022-10-29T21:36:14.380Z,66.86
2022-10-29T21:38:43.528Z,67.15
2022-10-29T21:41:11.623Z,67.10
2022-10-29T21:43:39.763Z,66.88
2022-10-29T21:46:08.135Z,66.73
2022-10-29T21:48:36.650Z,67.20
2022-10-29T21:51:09.025Z,67.51
2022-10-29T21:53:37.084Z,67.38
2022-10-29T21:56:07.377Z,66.95
2022-10-29T21:58:35.563Z,67.00
2022-10-29T22:01:05.230Z,67.21
2022-10-29T22:03:33.768Z,67.00
2022-10-29T22:06:08.112Z,67.21
2022-10-29T22:08:36.756Z,67.21
2022-10-29T22:11:05.036Z,67.25
2022-10-29T22:16:19.429Z,67.07
2022-10-29T22:18:47.427Z,66.83
2022-10-29T22:21:20.015Z,67.34
2022-10-29T22:23:49.517Z,67.40
2022-10-29T22:26:19.331Z,67.22
2022-10-29T22:28:48.093Z,67.35
2022-10-29T22:31:17.274Z,66.94
2022-10-29T22:33:46.275Z,67.26
2022-10-29T22:36:17.037Z,67.14
2022-10-29T22:38:45.709Z,67.22
2022-10-29T22:41:15.135Z,67.49
2022-10-29T22:43:43.396Z,67.31
2022-10-29T22:46:13.546Z,67.36
2022-10-29T22:48:43.771Z,67.33
2022-10-29T22:51:14.528Z,67.33
2022-10-29T22:53:44.554Z,67.57
2022-10-29T22:56:14.299Z,67.66
2022-10-29T22:58:42.277Z,67.55
2022-10-29T23:01:12.037Z,67.85
2022-10-29T23:03:41.590Z,67.89
2022-10-29T23:06:12.032Z,67.78
2022-10-29T23:08:40.076Z,67.81
2022-10-29T23:11:16.694Z,67.49
2022-10-29T23:13:45.555Z,67.81
2022-10-29T23:16:13.718Z,67.87
2022-10-29T23:18:41.981Z,67.51
2022-10-29T23:21:10.745Z,67.69
2022-10-29T23:23:38.607Z,67.67
2022-10-29T23:26:06.478Z,68.29
2022-10-29T23:28:38.571Z,68.21
2022-10-29T23:31:12.945Z,67.92
2022-10-29T23:33:44.489Z,67.99
2022-10-29T23:36:13.900Z,68.34
2022-10-29T23:38:41.994Z,68.35
2022-10-29T23:41:09.921Z,68.27
2022-10-29T23:43:39.503Z,68.18
2022-10-29T23:46:07.739Z,68.42
2022-10-29T23:48:35.859Z,68.49
2022-10-29T23:51:03.980Z,68.32
2022-10-29T23:53:33.887Z,68.38
2022-10-29T23:56:01.793Z,68.31
2022-10-29T23:58:29.947Z,68.35
